Time,TemperatureF,DewpointF,PressureIn,WindDirection,WindDirectionDegrees,WindSpeedMPH,WindSpeedGustMPH,Humidity,HourlyPrecipIn,Conditions,Clouds,dailyrainin,SoftwareType,DateUTC
2013-01-25 00:06:00,60.9,57.0,30.07,NNW,343,3.0,6.0,87,0.04,,,0.00,weatherlink.com 1.10,2013-01-25 08:06:00,
2013-01-25 00:21:00,60.9,57.0,30.07,NNW,338,3.0,6.0,87,0.00,,,0.00,weatherlink.com 1.10,2013-01-25 08:21:00,
2013-01-25 00:36:00,61.2,57.0,30.06,NW,326,5.0,5.0,86,0.00,,,0.00,weatherlink.com 1.10,2013-01-25 08:36:00,
2013-01-25 00:51:00,61.3,57.0,30.07,NNW,329,1.0,3.0,85,0.00,,,0.00,weatherlink.com 1.10,2013-01-25 08:51:00,
2013-01-25 01:06:00,61.2,57.0,30.07,WNW,289,1.0,2.0,85,0.00,,,0.00,weatherlink.com 1.10,2013-01-25 09:06:00,
2013-01-25 01:21:00,60.9,57.0,30.07,West,280,0.0,1.0,86,0.00,,,0.00,weatherlink.com 1.10,2013-01-25 09:21:00,
2013-01-25 01:37:00,60.7,57.0,30.07,West,280,0.0,0.0,86,0.00,,,0.00,weatherlink.com 1.10,2013-01-25 09:37:00,
2013-01-25 01:52:00,60.5,57.0,30.07,West,280,0.0,0.0,88,0.00,,,0.00,weatherlink.com 1.10,2013-01-25 09:52:00,
2013-01-25 02:06:00,60.5,57.0,30.06,West,280,0.0,1.0,88,0.01,,,0.01,weatherlink.com 1.10,2013-01-25 10:06:00,
2013-01-25 02:22:00,60.5,57.0,30.05,West,280,0.0,2.0,88,0.01,,,0.01,weatherlink.com 1.10,2013-01-25 10:22:00,
2013-01-25 02:37:00,60.6,57.0,30.03,NNW,343,2.0,3.0,88,0.02,,,0.02,weatherlink.com 1.10,2013-01-25 10:37:00,
2013-01-25 02:51:00,60.5,57.0,30.02,WNW,301,1.0,4.0,89,0.02,,,0.02,weatherlink.com 1.10,2013-01-25 10:51:00,
2013-01-25 03:06:00,60.6,57.0,30.03,WNW,300,1.0,3.0,89,0.01,,,0.02,weatherlink.com 1.10,2013-01-25 11:06:00,
2013-01-25 03:21:00,60.7,58.0,30.02,NW,305,2.0,3.0,89,0.01,,,0.02,weatherlink.com 1.10,2013-01-25 11:21:00,
2013-01-25 03:37:00,60.7,58.0,30.01,NNW,330,1.0,3.0,89,0.00,,,0.02,weatherlink.com 1.10,2013-01-25 11:37:00,
2013-01-25 03:52:00,61.0,58.0,30.01,NNW,335,2.0,4.0,88,0.00,,,0.02,weatherlink.com 1.10,2013-01-25 11:52:00,
2013-01-25 04:07:00,61.1,58.0,30.01,NW,321,1.0,2.0,88,0.00,,,0.02,weatherlink.com 1.10,2013-01-25 12:07:00,
2013-01-25 04:22:00,61.3,58.0,30.01,NW,322,2.0,4.0,88,0.01,,,0.03,weatherlink.com 1.10,2013-01-25 12:22:00,
2013-01-25 04:37:00,61.2,58.0,30.02,NW,307,0.0,1.0,88,0.01,,,0.03,weatherlink.com 1.10,2013-01-25 12:37:00,
2013-01-25 04:52:00,61.0,58.0,30.02,WNW,290,0.0,2.0,88,0.03,,,0.05,weatherlink.com 1.10,2013-01-25 12:52:00,
2013-01-25 05:07:00,60.9,58.0,30.04,West,267,0.0,2.0,89,0.04,,,0.06,weatherlink.com 1.10,2013-01-25 13:07:00,
2013-01-25 05:22:00,60.9,58.0,30.03,WNW,290,0.0,2.0,89,0.04,,,0.07,weatherlink.com 1.10,2013-01-25 13:22:00,
2013-01-25 05:37:00,60.8,58.0,30.02,NNW,336,2.0,5.0,89,0.04,,,0.07,weatherlink.com 1.10,2013-01-25 13:37:00,
2013-01-25 05:52:00,60.9,58.0,30.03,North,8,1.0,2.0,89,0.02,,,0.07,weatherlink.com 1.10,2013-01-25 13:52:00,
2013-01-25 06:07:00,61.0,58.0,30.03,NNE,24,1.0,3.0,88,0.01,,,0.07,weatherlink.com 1.10,2013-01-25 14:07:00,
2013-01-25 06:22:00,61.2,57.0,30.04,NNE,20,1.0,2.0,87,0.00,,,0.07,weatherlink.com 1.10,2013-01-25 14:22:00,
2013-01-25 06:37:00,61.2,57.0,30.04,NE,49,2.0,3.0,87,0.01,,,0.08,weatherlink.com 1.10,2013-01-25 14:37:00,
2013-01-25 06:52:00,61.1,57.0,30.04,ENE,75,2.0,4.0,87,0.04,,,0.11,weatherlink.com 1.10,2013-01-25 14:52:00,
2013-01-25 07:07:00,60.8,57.0,30.04,NE,56,1.0,5.0,88,0.06,,,0.13,weatherlink.com 1.10,2013-01-25 15:07:00,
2013-01-25 07:22:00,60.9,58.0,30.05,ENE,68,1.0,3.0,89,0.06,,,0.13,weatherlink.com 1.10,2013-01-25 15:22:00,
2013-01-25 07:37:00,61.0,58.0,30.05,NE,44,1.0,2.0,89,0.05,,,0.13,weatherlink.com 1.10,2013-01-25 15:37:00,
2013-01-25 07:52:00,61.0,58.0,30.05,NE,52,1.0,3.0,89,0.02,,,0.13,weatherlink.com 1.10,2013-01-25 15:52:00,
2013-01-25 08:07:00,61.2,58.0,30.05,East,83,2.0,4.0,89,0.00,,,0.13,weatherlink.com 1.10,2013-01-25 16:07:00,
2013-01-25 08:22:00,61.6,58.0,30.05,ENE,68,4.0,6.0,88,0.00,,,0.13,weatherlink.com 1.10,2013-01-25 16:22:00,
2013-01-25 08:37:00,61.9,58.0,30.06,East,87,3.0,6.0,87,0.00,,,0.13,weatherlink.com 1.10,2013-01-25 16:37:00,
2013-01-25 08:52:00,62.2,58.0,30.06,ESE,109,3.0,5.0,87,0.00,,,0.13,weatherlink.com 1.10,2013-01-25 16:52:00,
2013-01-25 09:07:00,62.8,58.0,30.07,East,101,3.0,7.0,85,0.00,,,0.13,weatherlink.com 1.10,2013-01-25 17:07:00,
2013-01-25 09:22:00,63.8,58.0,30.07,ESE,105,1.0,7.0,81,0.00,,,0.13,weatherlink.com 1.10,2013-01-25 17:22:00,
2013-01-25 09:37:00,64.1,57.0,30.07,East,83,3.0,7.0,79,0.00,,,0.13,weatherlink.com 1.10,2013-01-25 17:37:00,
2013-01-25 09:52:00,64.3,58.0,30.07,ENE,70,4.0,8.0,79,0.00,,,0.13,weatherlink.com 1.10,2013-01-25 17:52:00,
2013-01-25 10:07:00,64.8,57.0,30.07,East,94,5.0,7.0,77,0.00,,,0.13,weatherlink.com 1.10,2013-01-25 18:07:00,
2013-01-25 10:22:00,65.3,58.0,30.07,East,91,1.0,8.0,76,0.00,,,0.13,weatherlink.com 1.10,2013-01-25 18:22:00,
2013-01-25 10:37:00,65.6,58.0,30.07,East,83,3.0,7.0,75,0.00,,,0.13,weatherlink.com 1.10,2013-01-25 18:37:00,
2013-01-25 10:52:00,66.0,58.0,30.07,ESE,109,1.0,6.0,75,0.00,,,0.13,weatherlink.com 1.10,2013-01-25 18:52:00,
2013-01-25 11:07:00,66.5,58.0,30.06,NNE,17,2.0,5.0,74,0.00,,,0.13,weatherlink.com 1.10,2013-01-25 19:07:00,
2013-01-25 11:22:00,67.0,58.0,30.05,ENE,58,4.0,5.0,73,0.00,,,0.13,weatherlink.com 1.10,2013-01-25 19:22:00,
2013-01-25 11:39:00,66.9,58.0,30.04,ENE,69,2.0,5.0,74,0.00,,,0.13,weatherlink.com 1.10,2013-01-25 19:39:00,
2013-01-25 11:52:00,67.3,58.0,30.03,NE,39,1.0,5.0,73,0.00,,,0.13,weatherlink.com 1.10,2013-01-25 19:52:00,
2013-01-25 12:08:00,67.3,58.0,30.02,ESE,103,1.0,8.0,72,0.00,,,0.13,weatherlink.com 1.10,2013-01-25 20:08:00,
2013-01-25 12:23:00,66.9,58.0,30.02,East,79,4.0,7.0,73,0.00,,,0.13,weatherlink.com 1.10,2013-01-25 20:23:00,
2013-01-25 12:37:00,67.0,58.0,30.00,ENE,63,4.0,5.0,73,0.00,,,0.13,weatherlink.com 1.10,2013-01-25 20:37:00,
2013-01-25 12:52:00,67.5,58.0,29.98,ESE,110,2.0,4.0,72,0.00,,,0.13,weatherlink.com 1.10,2013-01-25 20:52:00,
2013-01-25 13:07:00,68.5,58.0,29.97,ESE,109,3.0,8.0,70,0.00,,,0.13,weatherlink.com 1.10,2013-01-25 21:07:00,
2013-01-25 13:22:00,68.9,58.0,29.96,NE,53,2.0,7.0,68,0.00,,,0.13,weatherlink.com 1.10,2013-01-25 21:22:00,
2013-01-25 13:37:00,69.0,58.0,29.97,ENE,62,2.0,5.0,68,0.00,,,0.13,weatherlink.com 1.10,2013-01-25 21:37:00,
2013-01-25 13:52:00,68.7,58.0,29.97,ESE,110,0.0,5.0,69,0.00,,,0.13,weatherlink.com 1.10,2013-01-25 21:52:00,
2013-01-25 14:07:00,68.5,59.0,29.97,ESE,116,1.0,3.0,71,0.00,,,0.13,weatherlink.com 1.10,2013-01-25 22:07:00,
2013-01-25 14:22:00,67.4,59.0,29.97,ESE,103,0.0,2.0,75,0.01,,,0.14,weatherlink.com 1.10,2013-01-25 22:22:00,
2013-01-25 14:38:00,67.3,60.0,29.97,SE,141,0.0,1.0,77,0.01,,,0.14,weatherlink.com 1.10,2013-01-25 22:38:00,
2013-01-25 14:52:00,67.3,60.0,29.97,SSE,155,1.0,2.0,76,0.01,,,0.14,weatherlink.com 1.10,2013-01-25 22:52:00,
2013-01-25 15:07:00,67.1,60.0,29.96,SSE,156,0.0,1.0,77,0.01,,,0.14,weatherlink.com 1.10,2013-01-25 23:07:00,
2013-01-25 15:23:00,66.8,59.0,29.95,SSE,156,0.0,0.0,77,0.01,,,0.15,weatherlink.com 1.10,2013-01-25 23:23:00,
2013-01-25 15:38:00,66.7,60.0,29.94,SSE,155,0.0,1.0,78,0.01,,,0.15,weatherlink.com 1.10,2013-01-25 23:38:00,
2013-01-25 15:53:00,66.7,60.0,29.95,West,274,0.0,1.0,79,0.01,,,0.15,weatherlink.com 1.10,2013-01-25 23:53:00,
2013-01-25 16:08:00,66.5,60.0,29.94,West,273,0.0,1.0,79,0.01,,,0.15,weatherlink.com 1.10,2013-01-26 00:08:00,
2013-01-25 16:23:00,66.3,60.0,29.94,West,273,0.0,1.0,80,0.00,,,0.15,weatherlink.com 1.10,2013-01-26 00:23:00,
2013-01-25 16:38:00,65.9,60.0,29.94,NW,326,0.0,3.0,81,0.00,,,0.15,weatherlink.com 1.10,2013-01-26 00:38:00,
2013-01-25 16:53:00,65.5,60.0,29.93,NNW,332,1.0,1.0,81,0.00,,,0.15,weatherlink.com 1.10,2013-01-26 00:53:00,
2013-01-25 17:08:00,64.6,59.0,29.91,NNW,336,1.0,2.0,83,0.00,,,0.15,weatherlink.com 1.10,2013-01-26 01:08:00,
2013-01-25 17:23:00,64.3,60.0,29.93,NNW,336,0.0,0.0,85,0.00,,,0.15,weatherlink.com 1.10,2013-01-26 01:23:00,
2013-01-25 17:38:00,64.1,60.0,29.93,WSW,257,0.0,1.0,85,0.00,,,0.15,weatherlink.com 1.10,2013-01-26 01:38:00,
2013-01-25 17:53:00,64.0,60.0,29.94,West,266,2.0,2.0,85,0.00,,,0.15,weatherlink.com 1.10,2013-01-26 01:53:00,
2013-01-25 18:08:00,64.1,60.0,29.94,West,268,1.0,4.0,85,0.02,,,0.17,weatherlink.com 1.10,2013-01-26 02:08:00,
2013-01-25 18:23:00,63.7,60.0,29.94,West,272,0.0,1.0,86,0.02,,,0.17,weatherlink.com 1.10,2013-01-26 02:23:00,
2013-01-25 18:38:00,63.4,60.0,29.95,West,266,1.0,2.0,87,0.02,,,0.17,weatherlink.com 1.10,2013-01-26 02:38:00,
2013-01-25 18:53:00,63.4,60.0,29.95,West,269,0.0,1.0,88,0.02,,,0.17,weatherlink.com 1.10,2013-01-26 02:53:00,
2013-01-25 19:08:00,63.4,60.0,29.95,WNW,293,0.0,2.0,88,0.00,,,0.17,weatherlink.com 1.10,2013-01-26 03:08:00,
2013-01-25 19:23:00,63.3,60.0,29.95,WNW,291,0.0,2.0,88,0.00,,,0.17,weatherlink.com 1.10,2013-01-26 03:23:00,
2013-01-25 19:38:00,63.3,60.0,29.94,WNW,294,0.0,2.0,89,0.01,,,0.18,weatherlink.com 1.10,2013-01-26 03:38:00,
2013-01-25 19:53:00,63.1,60.0,29.93,WNW,294,0.0,2.0,89,0.01,,,0.18,weatherlink.com 1.10,2013-01-26 03:53:00,
2013-01-25 20:08:00,62.8,60.0,29.92,NW,321,1.0,4.0,89,0.01,,,0.18,weatherlink.com 1.10,2013-01-26 04:08:00,
2013-01-25 20:23:00,62.6,59.0,29.92,WNW,300,1.0,2.0,89,0.01,,,0.18,weatherlink.com 1.10,2013-01-26 04:23:00,
2013-01-25 20:38:00,62.4,59.0,29.93,West,267,1.0,3.0,89,0.00,,,0.18,weatherlink.com 1.10,2013-01-26 04:38:00,
2013-01-25 21:08:00,62.3,59.0,29.93,NW,325,2.0,2.0,89,0.00,,,0.18,weatherlink.com 1.10,2013-01-26 05:08:00,
2013-01-25 21:23:00,62.2,59.0,29.93,NW,308,0.0,3.0,89,0.00,,,0.18,weatherlink.com 1.10,2013-01-26 05:23:00,
2013-01-25 21:38:00,62.2,59.0,29.93,NW,309,2.0,3.0,89,0.00,,,0.18,weatherlink.com 1.10,2013-01-26 05:38:00,
2013-01-25 21:53:00,62.0,59.0,29.92,NW,308,0.0,1.0,89,0.00,,,0.18,weatherlink.com 1.10,2013-01-26 05:53:00,
2013-01-25 22:08:00,61.9,59.0,29.93,NW,308,0.0,1.0,89,0.00,,,0.18,weatherlink.com 1.10,2013-01-26 06:08:00,
2013-01-25 22:23:00,61.6,58.0,29.93,NW,308,0.0,0.0,89,0.00,,,0.18,weatherlink.com 1.10,2013-01-26 06:23:00,
2013-01-25 22:38:00,61.6,58.0,29.93,West,277,1.0,1.0,89,0.00,,,0.18,weatherlink.com 1.10,2013-01-26 06:38:00,
2013-01-25 22:53:00,61.8,59.0,29.93,West,266,2.0,3.0,89,0.00,,,0.18,weatherlink.com 1.10,2013-01-26 06:53:00,
2013-01-25 23:08:00,61.7,59.0,29.93,WNW,283,2.0,2.0,89,0.00,,,0.18,weatherlink.com 1.10,2013-01-26 07:08:00,
2013-01-25 23:23:00,61.5,58.0,29.92,WNW,297,0.0,3.0,89,0.00,,,0.18,weatherlink.com 1.10,2013-01-26 07:23:00,
2013-01-25 23:38:00,61.5,58.0,29.92,WNW,295,0.0,1.0,89,0.00,,,0.18,weatherlink.com 1.10,2013-01-26 07:38:00,
2013-01-25 23:53:00,61.4,58.0,29.91,WNW,295,1.0,2.0,89,0.00,,,0.18,weatherlink.com 1.10,2013-01-26 07:53:00,